createdAt,value
2022-11-15T00:00:52.266Z,80.17
2022-11-15T00:03:54.961Z,80.77
2022-11-15T00:06:59.260Z,80.91
2022-11-15T00:10:02.125Z,80.46
2022-11-15T00:13:07.087Z,80.73
2022-11-15T00:16:11.520Z,80.81
2022-11-15T00:19:14.634Z,80.29
2022-11-15T00:22:18.853Z,80.37
2022-11-15T00:25:21.577Z,80.62
2022-11-15T00:28:24.392Z,80.58
2022-11-15T00:31:27.101Z,80.49
2022-11-15T00:34:29.950Z,79.69
2022-11-15T00:37:33.999Z,80.21
2022-11-15T00:40:36.816Z,80.59
2022-11-15T00:43:41.179Z,80.43
2022-11-15T00:46:44.078Z,80.24
2022-11-15T00:49:46.908Z,79.36
2022-11-15T00:52:50.968Z,79.88
2022-11-15T00:55:53.683Z,79.77
2022-11-15T00:58:56.497Z,80.64
2022-11-15T01:01:59.319Z,81.20
2022-11-15T01:05:02.141Z,80.73
2022-11-15T01:08:06.634Z,81.06
2022-11-15T01:11:12.146Z,80.75
2022-11-15T01:14:15.435Z,79.96
2022-11-15T01:17:18.262Z,80.68
2022-11-15T01:20:20.917Z,80.63
2022-11-15T01:23:25.081Z,80.25
2022-11-15T01:26:28.036Z,80.61
2022-11-15T01:29:30.743Z,81.18
2022-11-15T01:32:33.865Z,80.71
2022-11-15T01:35:40.632Z,81.04
2022-11-15T01:38:45.162Z,81.07
2022-11-15T01:41:47.838Z,81.40
2022-11-15T01:44:52.742Z,81.00
2022-11-15T01:47:57.452Z,81.62
2022-11-15T01:51:01.310Z,80.83
2022-11-15T01:54:10.631Z,81.24
2022-11-15T01:57:14.704Z,81.26
2022-11-15T02:00:18.317Z,81.28
2022-11-15T02:03:22.324Z,81.51
2022-11-15T02:06:25.213Z,81.21
2022-11-15T02:09:29.325Z,80.37
2022-11-15T02:12:32.676Z,80.72
2022-11-15T02:15:56.943Z,80.59
2022-11-15T02:19:11.236Z,80.97
2022-11-15T02:22:33.628Z,80.26
2022-11-15T02:25:49.838Z,80.33
2022-11-15T02:29:01.166Z,80.66
2022-11-15T02:32:12.635Z,80.22
2022-11-15T02:35:24.357Z,80.50
2022-11-15T02:38:34.890Z,80.86
2022-11-15T02:41:44.725Z,80.18
2022-11-15T02:44:47.971Z,80.82
2022-11-15T02:47:56.961Z,80.60
2022-11-15T02:51:01.158Z,80.82
2022-11-15T02:54:03.836Z,80.88
2022-11-15T02:57:14.525Z,80.97
2022-11-15T03:00:19.124Z,80.98
2022-11-15T03:03:44.710Z,80.65
2022-11-15T03:06:53.209Z,80.27
2022-11-15T03:10:02.194Z,80.27
2022-11-15T03:13:18.688Z,80.60
2022-11-15T03:16:27.808Z,81.40
2022-11-15T03:19:36.442Z,80.41
2022-11-15T03:22:44.588Z,80.61
2022-11-15T03:25:50.849Z,80.71
2022-11-15T03:28:57.440Z,80.60
2022-11-15T03:32:05.955Z,80.48
2022-11-15T03:35:13.667Z,80.58
2022-11-15T03:38:21.902Z,80.86
2022-11-15T03:41:30.080Z,80.75
2022-11-15T03:44:41.333Z,80.54
2022-11-15T03:47:50.441Z,80.16
2022-11-15T03:50:55.446Z,80.40
2022-11-15T03:53:58.399Z,80.64
2022-11-15T03:57:01.261Z,80.87
2022-11-15T04:00:05.959Z,80.55
2022-11-15T04:03:09.469Z,81.15
2022-11-15T04:06:13.505Z,81.03
2022-11-15T04:09:16.318Z,80.89
2022-11-15T04:12:31.559Z,81.37
2022-11-15T04:15:34.825Z,81.29
2022-11-15T04:18:37.507Z,81.32
2022-11-15T04:21:58.946Z,81.53
2022-11-15T04:25:01.614Z,81.19
2022-11-15T04:28:04.375Z,81.11
2022-11-15T04:31:07.087Z,81.12
2022-11-15T04:34:09.886Z,81.57
2022-11-15T04:37:14.069Z,81.19
2022-11-15T04:40:17.267Z,81.30
2022-11-15T04:43:19.964Z,81.06
2022-11-15T04:46:22.710Z,81.08
2022-11-15T04:49:25.516Z,80.79
2022-11-15T04:52:29.589Z,80.67
2022-11-15T04:55:32.841Z,81.04
2022-11-15T04:58:35.715Z,80.89
2022-11-15T05:01:43.577Z,80.64
2022-11-15T05:04:46.475Z,80.35
2022-11-15T05:07:50.613Z,80.30
2022-11-15T05:10:53.527Z,80.21
2022-11-15T05:13:56.426Z,80.53
2022-11-15T05:16:59.232Z,80.59
2022-11-15T05:20:01.939Z,80.31
2022-11-15T05:23:06.077Z,80.05
2022-11-15T05:26:09.907Z,80.07
2022-11-15T05:29:13.155Z,79.92
2022-11-15T05:32:16.043Z,80.19
2022-11-15T05:35:24.808Z,80.21
2022-11-15T05:38:28.977Z,79.92
2022-11-15T05:41:36.001Z,79.93
2022-11-15T05:44:40.931Z,80.22
2022-11-15T05:47:43.950Z,79.86
2022-11-15T05:50:49.146Z,79.99
2022-11-15T05:53:54.745Z,80.07
2022-11-15T05:56:57.948Z,79.82
2022-11-15T06:00:00.847Z,79.67
2022-11-15T06:03:03.654Z,79.99
2022-11-15T06:06:07.743Z,79.96
2022-11-15T06:09:14.125Z,79.64
2022-11-15T06:12:16.848Z,79.84
2022-11-15T06:15:19.647Z,80.00
2022-11-15T06:18:22.457Z,80.05
2022-11-15T06:21:25.330Z,79.95
2022-11-15T06:24:29.583Z,80.31
2022-11-15T06:27:32.270Z,80.44
2022-11-15T06:30:35.140Z,80.76
2022-11-15T06:33:37.836Z,79.81
2022-11-15T06:36:40.774Z,80.33
2022-11-15T06:39:44.852Z,80.55
2022-11-15T06:42:47.709Z,79.70
2022-11-15T06:45:50.581Z,80.50
2022-11-15T06:48:53.793Z,79.97
2022-11-15T06:51:56.570Z,80.56
2022-11-15T06:55:03.796Z,80.05
2022-11-15T06:58:06.675Z,79.87
2022-11-15T07:01:11.315Z,80.20
2022-11-15T07:04:14.369Z,80.36
2022-11-15T07:07:17.189Z,80.08
2022-11-15T07:10:21.319Z,80.27
2022-11-15T07:13:26.834Z,79.57
2022-11-15T07:16:29.666Z,79.53
2022-11-15T07:19:32.554Z,79.68
2022-11-15T07:22:35.275Z,79.71
2022-11-15T07:25:39.509Z,79.95
2022-11-15T07:28:42.244Z,79.72
2022-11-15T07:31:44.965Z,79.82
2022-11-15T07:34:47.682Z,81.15
2022-11-15T07:38:01.176Z,80.05
2022-11-15T07:41:07.300Z,80.57
2022-11-15T07:44:11.163Z,80.50
2022-11-15T07:47:14.070Z,80.92
2022-11-15T07:50:17.171Z,79.65
2022-11-15T07:53:19.898Z,80.25
2022-11-15T07:56:23.957Z,80.24
2022-11-15T07:59:26.772Z,79.62
2022-11-15T08:02:30.675Z,80.10
2022-11-15T08:05:34.487Z,79.18
2022-11-15T08:08:37.245Z,79.76
2022-11-15T08:11:41.488Z,79.52
2022-11-15T08:14:44.366Z,79.09
2022-11-15T08:17:47.277Z,78.33
2022-11-15T08:20:49.938Z,78.23
2022-11-15T08:23:52.815Z,78.13
2022-11-15T08:26:57.137Z,78.38
2022-11-15T08:29:59.905Z,78.19
2022-11-15T08:33:02.828Z,77.62
2022-11-15T08:36:06.209Z,78.05
2022-11-15T08:39:12.409Z,77.82
2022-11-15T08:42:19.922Z,77.30
2022-11-15T08:45:23.480Z,77.29
2022-11-15T08:48:26.346Z,76.04
2022-11-15T08:51:29.196Z,78.80
2022-11-15T08:54:32.853Z,81.97
2022-11-15T08:57:36.882Z,74.19
2022-11-15T09:00:39.858Z,74.17
2022-11-15T09:03:42.864Z,72.59
2022-11-15T09:06:45.735Z,71.44
2022-11-15T09:09:48.567Z,72.08
2022-11-15T09:12:52.744Z,71.70
2022-11-15T09:15:59.476Z,70.97
2022-11-15T09:19:03.772Z,71.19
2022-11-15T09:22:09.106Z,71.50
2022-11-15T09:25:11.845Z,70.84
2022-11-15T09:28:16.014Z,70.18
2022-11-15T09:31:21.014Z,69.98
2022-11-15T09:34:24.952Z,69.18
2022-11-15T09:37:27.630Z,67.75
2022-11-15T09:40:33.074Z,66.98
2022-11-15T09:43:48.528Z,65.80
2022-11-15T09:47:01.328Z,64.65
2022-11-15T09:50:12.081Z,65.91
2022-11-15T09:53:47.834Z,63.35
2022-11-15T09:56:46.817Z,62.57
2022-11-15T10:03:29.680Z,59.82
2022-11-15T10:06:36.973Z,57.68
2022-11-15T10:09:47.464Z,57.05
2022-11-15T10:12:53.651Z,56.25
2022-11-15T10:16:06.584Z,57.35
2022-11-15T10:19:19.523Z,55.92
2022-11-15T10:22:31.225Z,55.42
2022-11-15T10:25:36.200Z,52.93
2022-11-15T10:28:38.919Z,54.30
2022-11-15T10:31:43.547Z,53.35
2022-11-15T10:34:46.951Z,53.63
2022-11-15T10:37:50.090Z,51.82
2022-11-15T10:41:08.854Z,51.13
2022-11-15T10:44:26.590Z,51.25
2022-11-15T10:47:38.985Z,52.04
2022-11-15T10:50:44.196Z,51.15
2022-11-15T10:53:48.752Z,52.13
2022-11-15T10:56:54.026Z,51.48
2022-11-15T10:59:58.242Z,51.03
2022-11-15T11:03:04.358Z,50.79
2022-11-15T11:06:10.807Z,49.43
2022-11-15T11:09:25.295Z,49.05
2022-11-15T11:12:33.180Z,50.04
2022-11-15T11:15:36.244Z,48.56
2022-11-15T11:18:50.590Z,49.60
2022-11-15T11:22:04.360Z,48.84
2022-11-15T11:25:20.418Z,49.31
2022-11-15T11:28:40.309Z,48.07
2022-11-15T11:31:54.877Z,48.63
2022-11-15T11:35:10.640Z,48.09
2022-11-15T11:38:25.686Z,49.31
2022-11-15T11:41:48.353Z,48.88
2022-11-15T11:45:00.957Z,49.47
2022-11-15T11:48:14.269Z,48.89
2022-11-15T11:51:26.485Z,49.02
2022-11-15T11:54:37.117Z,49.26
2022-11-15T11:57:44.408Z,50.66
2022-11-15T12:00:53.451Z,51.26
2022-11-15T12:04:07.826Z,52.14
2022-11-15T12:07:17.880Z,52.46
2022-11-15T12:10:25.389Z,52.91
2022-11-15T12:13:34.358Z,53.52
2022-11-15T12:16:37.603Z,53.80
2022-11-15T12:19:41.321Z,54.43
2022-11-15T12:22:49.515Z,54.94
2022-11-15T12:25:56.106Z,55.38
2022-11-15T12:29:07.570Z,55.53
2022-11-15T12:32:25.248Z,56.53
2022-11-15T12:35:35.064Z,55.65
2022-11-15T12:38:59.763Z,56.39
2022-11-15T12:42:44.246Z,56.69
2022-11-15T12:45:47.877Z,56.22
2022-11-15T12:48:54.243Z,56.09
2022-11-15T12:52:09.547Z,57.07
2022-11-15T12:55:33.423Z,56.84
2022-11-15T12:58:44.175Z,57.47
2022-11-15T13:02:00.338Z,57.59
2022-11-15T13:05:42.085Z,57.27
2022-11-15T13:08:49.281Z,57.72
2022-11-15T13:11:54.927Z,57.71
2022-11-15T13:14:58.994Z,58.12
2022-11-15T13:18:28.987Z,57.89
2022-11-15T13:21:50.666Z,57.92
2022-11-15T13:24:53.746Z,57.90
2022-11-15T13:28:05.052Z,58.03
2022-11-15T13:31:26.340Z,58.20
2022-11-15T13:34:50.936Z,58.67
2022-11-15T13:37:56.324Z,58.66
2022-11-15T13:41:00.452Z,59.00
2022-11-15T13:44:06.038Z,59.10
2022-11-15T13:47:15.400Z,58.70
2022-11-15T13:50:18.564Z,59.08
2022-11-15T13:53:21.320Z,59.03
2022-11-15T13:56:24.547Z,59.50
2022-11-15T13:59:30.204Z,59.72
2022-11-15T14:02:36.047Z,60.25
2022-11-15T14:05:39.377Z,60.25
2022-11-15T14:08:43.169Z,60.20
2022-11-15T14:11:54.018Z,60.34
2022-11-15T14:14:59.263Z,60.20
2022-11-15T14:18:02.049Z,60.83
2022-11-15T14:21:08.754Z,61.10
2022-11-15T14:24:17.809Z,61.77
2022-11-15T14:27:24.041Z,61.93
2022-11-15T14:30:28.067Z,62.14
2022-11-15T14:33:34.058Z,62.35
2022-11-15T14:36:36.892Z,62.29
2022-11-15T14:39:39.619Z,62.65
2022-11-15T14:42:42.564Z,63.08
2022-11-15T14:45:46.671Z,63.63
2022-11-15T14:48:49.463Z,64.20
2022-11-15T14:51:52.313Z,64.94
2022-11-15T14:54:55.195Z,65.29
2022-11-15T14:57:58.014Z,65.96
2022-11-15T15:01:03.732Z,65.85
2022-11-15T15:04:06.479Z,66.26
2022-11-15T15:07:09.344Z,66.15
2022-11-15T15:10:38.252Z,66.84
2022-11-15T15:13:35.672Z,67.66
2022-11-15T15:16:39.958Z,67.44
2022-11-15T15:19:43.330Z,68.17
2022-11-15T15:22:46.327Z,67.72
2022-11-15T15:25:50.279Z,67.93
2022-11-15T15:28:53.163Z,68.49
2022-11-15T15:31:57.195Z,67.44
2022-11-15T15:35:00.403Z,68.62
2022-11-15T15:38:03.463Z,68.72
2022-11-15T15:41:06.389Z,68.99
2022-11-15T15:44:09.087Z,69.42
2022-11-15T15:47:14.608Z,69.68
2022-11-15T15:50:24.770Z,69.44
2022-11-15T15:53:27.593Z,70.53
2022-11-15T15:56:30.381Z,70.35
2022-11-15T15:59:33.447Z,70.69
2022-11-15T16:02:40.414Z,70.58
2022-11-15T16:05:43.567Z,70.90
2022-11-15T16:09:08.240Z,70.63
2022-11-15T16:12:09.004Z,70.24
2022-11-15T16:15:11.938Z,70.84
2022-11-15T16:18:17.985Z,70.83
2022-11-15T16:21:20.692Z,71.60
2022-11-15T16:24:23.972Z,72.07
2022-11-15T16:27:26.635Z,72.19
2022-11-15T16:30:29.456Z,72.56
2022-11-15T16:33:34.591Z,71.71
2022-11-15T16:36:37.795Z,72.48
2022-11-15T16:39:40.566Z,72.14
2022-11-15T16:42:43.244Z,71.88
2022-11-15T16:45:46.298Z,72.55
2022-11-15T16:48:51.216Z,73.35
2022-11-15T16:51:54.249Z,73.55
2022-11-15T16:54:56.938Z,74.10
2022-11-15T16:57:59.619Z,73.68
2022-11-15T17:01:02.391Z,74.34
2022-11-15T17:04:12.728Z,74.48
2022-11-15T17:07:15.823Z,74.80
2022-11-15T17:10:19.195Z,73.02
2022-11-15T17:13:21.862Z,74.59
2022-11-15T17:16:24.684Z,74.27
2022-11-15T17:19:28.801Z,74.76
2022-11-15T17:22:31.622Z,74.66
2022-11-15T17:25:34.314Z,74.91
2022-11-15T17:28:37.127Z,74.34
2022-11-15T17:31:40.127Z,75.10
2022-11-15T17:34:44.246Z,75.52
2022-11-15T17:37:48.314Z,74.24
2022-11-15T17:41:00.757Z,75.22
2022-11-15T17:44:04.053Z,75.17
2022-11-15T17:47:06.732Z,74.68
2022-11-15T17:50:11.624Z,74.49
2022-11-15T17:53:14.317Z,75.53
2022-11-15T17:56:18.816Z,76.41
2022-11-15T17:59:21.902Z,76.81
2022-11-15T18:02:24.755Z,75.59
2022-11-15T18:05:28.785Z,74.81
2022-11-15T18:08:31.740Z,76.15
2022-11-15T18:11:38.345Z,75.73
2022-11-15T18:14:41.030Z,76.10
2022-11-15T18:17:43.838Z,77.15
2022-11-15T18:20:47.954Z,75.66
2022-11-15T18:23:54.587Z,75.80
2022-11-15T18:26:58.073Z,75.78
2022-11-15T18:30:00.755Z,76.30
2022-11-15T18:33:03.558Z,76.12
2022-11-15T18:36:10.545Z,74.99
2022-11-15T18:39:16.510Z,76.89
2022-11-15T18:42:19.276Z,77.61
2022-11-15T18:45:24.224Z,78.22
2022-11-15T18:48:30.561Z,78.03
2022-11-15T18:51:36.967Z,78.57
2022-11-15T18:54:39.786Z,78.02
2022-11-15T18:57:42.489Z,76.85
2022-11-15T19:00:45.187Z,77.78
2022-11-15T19:03:49.426Z,78.18
2022-11-15T19:06:53.966Z,77.76
2022-11-15T19:09:57.060Z,77.26
2022-11-15T19:12:59.780Z,77.68
2022-11-15T19:16:04.430Z,78.14
2022-11-15T19:19:09.328Z,78.36
2022-11-15T19:22:13.317Z,77.96
2022-11-15T19:25:18.869Z,78.20
2022-11-15T19:28:21.741Z,78.55
2022-11-15T19:31:25.567Z,78.02
2022-11-15T19:34:28.277Z,77.87
2022-11-15T19:37:32.326Z,79.97
2022-11-15T19:40:35.726Z,78.22
2022-11-15T19:43:38.553Z,79.28
2022-11-15T19:46:41.551Z,78.82
2022-11-15T19:49:46.649Z,79.11
2022-11-15T19:52:50.694Z,79.15
2022-11-15T19:55:57.473Z,78.13
2022-11-15T19:59:00.145Z,78.16
2022-11-15T20:02:02.996Z,79.25
2022-11-15T20:05:06.262Z,78.48
2022-11-15T20:08:10.336Z,78.34
2022-11-15T20:11:14.067Z,80.74
2022-11-15T20:14:16.738Z,80.51
2022-11-15T20:17:19.576Z,80.64
2022-11-15T20:20:22.406Z,80.84
2022-11-15T20:23:26.662Z,81.46
2022-11-15T20:26:32.248Z,80.08
2022-11-15T20:29:34.993Z,80.32
2022-11-15T20:32:37.858Z,79.66
2022-11-15T20:35:41.287Z,81.38
2022-11-15T20:38:45.970Z,80.59
2022-11-15T20:41:48.806Z,80.69
2022-11-15T20:44:51.461Z,81.90
2022-11-15T20:47:56.273Z,80.87
2022-11-15T20:51:06.286Z,81.33
2022-11-15T20:54:10.322Z,82.26
2022-11-15T20:57:13.167Z,80.54
2022-11-15T21:00:16.379Z,79.93
2022-11-15T21:03:19.221Z,79.96
2022-11-15T21:06:24.109Z,80.92
2022-11-15T21:09:45.597Z,81.17
2022-11-15T21:12:48.840Z,81.50
2022-11-15T21:15:51.558Z,81.76
2022-11-15T21:18:54.653Z,80.40
2022-11-15T21:21:57.560Z,79.91
2022-11-15T21:25:01.692Z,80.57
2022-11-15T21:28:04.642Z,79.80
2022-11-15T21:31:07.474Z,82.47
2022-11-15T21:34:10.333Z,81.29
2022-11-15T21:37:13.051Z,81.47
2022-11-15T21:40:18.058Z,80.48
2022-11-15T21:43:21.820Z,81.88
2022-11-15T21:46:24.560Z,82.13
2022-11-15T21:49:27.415Z,80.42
2022-11-15T21:52:30.070Z,80.74
2022-11-15T21:55:34.384Z,81.36
2022-11-15T21:58:40.730Z,81.76
2022-11-15T22:02:01.002Z,80.21
2022-11-15T22:05:03.905Z,81.03
2022-11-15T22:08:06.639Z,82.43
2022-11-15T22:11:10.861Z,82.45
2022-11-15T22:14:13.773Z,82.18
2022-11-15T22:17:16.618Z,82.47
2022-11-15T22:23:43.516Z,83.02
2022-11-15T22:26:47.727Z,82.26
2022-11-15T22:29:50.669Z,81.43
2022-11-15T22:32:53.487Z,80.56
2022-11-15T22:35:56.870Z,81.67
2022-11-15T22:38:59.772Z,81.81
2022-11-15T22:42:04.182Z,82.21
2022-11-15T22:45:08.044Z,82.05
2022-11-15T22:48:10.969Z,80.04
2022-11-15T22:51:13.901Z,81.39
2022-11-15T22:54:16.728Z,81.96
2022-11-15T22:57:22.104Z,82.16
2022-11-15T23:00:25.069Z,81.56
2022-11-15T23:03:29.266Z,81.69
2022-11-15T23:06:32.386Z,81.90
2022-11-15T23:09:35.440Z,82.57
2022-11-15T23:12:57.066Z,81.42
2022-11-15T23:16:22.765Z,81.73
2022-11-15T23:19:25.819Z,81.28
2022-11-15T23:22:46.301Z,82.18
2022-11-15T23:25:49.238Z,82.38
2022-11-15T23:28:53.615Z,81.51
2022-11-15T23:32:14.939Z,81.29
2022-11-15T23:35:18.087Z,82.82
2022-11-15T23:38:23.316Z,82.86
2022-11-15T23:41:26.287Z,81.14
2022-11-15T23:44:30.561Z,80.69
2022-11-15T23:47:33.509Z,81.10
2022-11-15T23:50:37.094Z,81.56
2022-11-15T23:53:40.066Z,82.04
2022-11-15T23:56:43.073Z,83.02
2022-11-15T23:59:47.863Z,81.11
